createdAt,value
2019-01-11T00:02:56.896Z,7.03
2019-01-11T00:09:03.185Z,7.80
2019-01-11T00:15:09.540Z,8.10
2019-01-11T00:21:15.658Z,8.17
2019-01-11T00:27:22.042Z,8.17
2019-01-11T00:33:27.795Z,7.87
2019-01-11T00:39:33.621Z,8.30
2019-01-11T00:45:39.474Z,7.07
2019-01-11T00:51:45.215Z,7.27
2019-01-11T00:57:51.146Z,6.93
2019-01-11T01:03:56.903Z,7.73
2019-01-11T01:10:02.846Z,7.67
2019-01-11T01:16:08.645Z,9.33
2019-01-11T01:22:14.645Z,7.83
2019-01-11T01:28:20.530Z,8.70
2019-01-11T01:34:26.332Z,7.93
2019-01-11T01:40:32.110Z,8.83
2019-01-11T01:46:38.069Z,10.17
2019-01-11T01:52:44.200Z,9.73
2019-01-11T01:58:50.410Z,10.33
2019-01-11T02:04:56.152Z,10.53
2019-01-11T02:11:02.141Z,11.33
2019-01-11T02:17:07.951Z,11.73
2019-01-11T02:23:13.737Z,12.53
2019-01-11T02:29:19.775Z,12.70
2019-01-11T02:35:25.763Z,14.10
2019-01-11T02:41:31.550Z,15.70
2019-01-11T02:47:37.484Z,17.70
2019-01-11T02:53:43.218Z,19.60
2019-01-11T02:59:49.043Z,21.73
2019-01-11T03:05:54.821Z,23.10
2019-01-11T03:12:00.528Z,24.13
2019-01-11T03:18:06.614Z,26.07
2019-01-11T03:24:12.346Z,27.70
2019-01-11T03:30:21.328Z,27.90
2019-01-11T03:36:27.390Z,26.97
2019-01-11T03:42:33.161Z,28.23
2019-01-11T03:48:38.934Z,25.27
2019-01-11T03:54:44.928Z,25.40
2019-01-11T04:00:50.972Z,24.53
2019-01-11T04:06:56.771Z,23.23
2019-01-11T04:13:02.697Z,22.23
2019-01-11T04:19:13.220Z,22.87
2019-01-11T04:25:31.958Z,21.83
2019-01-11T04:31:38.180Z,22.70
2019-01-11T04:37:43.948Z,22.00
2019-01-11T04:43:49.823Z,21.87
2019-01-11T04:49:55.819Z,21.70
2019-01-11T04:56:01.522Z,22.87
2019-01-11T05:02:07.804Z,23.73
2019-01-11T05:08:14.191Z,24.40
2019-01-11T05:14:20.276Z,22.27
2019-01-11T05:20:26.284Z,23.97
2019-01-11T05:26:32.035Z,25.47
2019-01-11T05:32:37.855Z,24.60
2019-01-11T05:38:44.122Z,24.83
2019-01-11T05:44:49.903Z,26.87
2019-01-11T05:50:55.753Z,25.30
2019-01-11T05:57:01.968Z,25.80
2019-01-11T06:03:08.027Z,26.27
2019-01-11T06:09:14.104Z,27.30
2019-01-11T06:15:19.832Z,32.10
2019-01-11T06:21:26.568Z,33.53
2019-01-11T06:27:32.680Z,30.97
2019-01-11T06:33:38.537Z,36.03
2019-01-11T06:39:45.369Z,35.23
2019-01-11T06:45:51.405Z,35.60
2019-01-11T06:51:57.203Z,35.03
2019-01-11T06:58:02.981Z,37.63
2019-01-11T07:04:08.835Z,36.67
2019-01-11T07:10:18.284Z,37.37
2019-01-11T07:16:24.591Z,39.90
2019-01-11T07:22:30.372Z,38.73
2019-01-11T07:28:36.218Z,44.80
2019-01-11T07:34:42.194Z,40.10
2019-01-11T07:40:48.385Z,45.10
2019-01-11T07:46:54.415Z,42.70
2019-01-11T07:53:00.394Z,39.27
2019-01-11T07:59:07.081Z,36.07
2019-01-11T08:05:12.951Z,34.50
2019-01-11T08:11:18.939Z,35.27
2019-01-11T08:17:24.847Z,39.87
2019-01-11T08:23:31.107Z,38.97
2019-01-11T08:29:36.923Z,38.43
2019-01-11T08:35:42.943Z,40.73
2019-01-11T08:41:48.642Z,42.73
2019-01-11T08:47:54.843Z,42.00
2019-01-11T08:54:00.886Z,39.83
2019-01-11T09:00:08.361Z,42.90
2019-01-11T09:06:14.380Z,45.30
2019-01-11T09:12:20.682Z,41.47
2019-01-11T09:18:36.656Z,48.07
2019-01-11T09:24:42.425Z,51.07
2019-01-11T09:30:48.429Z,51.97
2019-01-11T09:36:54.468Z,49.87
2019-01-11T09:43:00.501Z,57.97
2019-01-11T09:49:06.443Z,57.30
2019-01-11T09:55:12.704Z,61.47
2019-01-11T10:01:18.400Z,49.67
2019-01-11T10:07:29.663Z,55.93
2019-01-11T10:13:35.482Z,51.87
2019-01-11T10:19:41.370Z,54.63
2019-01-11T10:25:47.446Z,58.77
2019-01-11T10:31:53.623Z,60.33
2019-01-11T10:37:59.545Z,61.17
2019-01-11T10:44:05.465Z,67.23
2019-01-11T10:50:14.309Z,62.33
2019-01-11T10:56:20.271Z,64.17
2019-01-11T11:02:26.019Z,70.90
2019-01-11T11:08:32.042Z,72.40
2019-01-11T11:14:37.786Z,86.03
2019-01-11T11:20:43.762Z,76.93
2019-01-11T11:26:49.584Z,77.43
2019-01-11T11:33:05.628Z,71.67
2019-01-11T11:39:13.229Z,73.03
2019-01-11T11:45:19.365Z,82.13
2019-01-11T11:51:25.505Z,79.17
2019-01-11T11:57:31.776Z,72.23
2019-01-11T12:03:37.860Z,61.63
2019-01-11T12:09:44.143Z,56.60
2019-01-11T12:15:50.043Z,52.90
2019-01-11T12:22:01.503Z,60.53
2019-01-11T12:28:03.224Z,59.13
2019-01-11T12:34:08.913Z,51.73
2019-01-11T12:40:15.373Z,57.17
2019-01-11T12:46:21.372Z,51.17
2019-01-11T12:52:27.266Z,55.63
2019-01-11T12:58:33.285Z,54.33
2019-01-11T13:04:39.482Z,54.17
2019-01-11T13:10:45.574Z,60.03
2019-01-11T13:16:51.478Z,59.17
2019-01-11T13:22:57.259Z,48.47
2019-01-11T13:29:03.006Z,41.60
2019-01-11T13:35:09.460Z,38.27
2019-01-11T13:41:15.857Z,23.80
2019-01-11T13:47:22.099Z,25.23
2019-01-11T13:53:28.364Z,16.60
2019-01-11T13:59:34.371Z,14.73
2019-01-11T14:05:40.704Z,12.00
2019-01-11T14:11:46.483Z,12.27
2019-01-11T14:17:52.553Z,10.67
2019-01-11T14:23:58.356Z,9.67
2019-01-11T14:30:05.116Z,9.67
2019-01-11T14:36:10.882Z,8.87
2019-01-11T14:42:16.754Z,11.07
2019-01-11T14:48:22.891Z,11.47
2019-01-11T14:54:28.917Z,9.17
2019-01-11T15:00:34.940Z,15.40
2019-01-11T15:06:40.931Z,12.00
2019-01-11T15:12:49.222Z,12.10
2019-01-11T15:18:55.072Z,11.17
2019-01-11T15:25:01.064Z,13.23
2019-01-11T15:31:06.817Z,17.07
2019-01-11T15:37:12.764Z,13.50
2019-01-11T15:43:18.699Z,10.13
2019-01-11T15:49:24.810Z,9.40
2019-01-11T15:55:30.703Z,8.57
2019-01-11T16:01:36.625Z,8.83
2019-01-11T16:07:42.728Z,9.07
2019-01-11T16:14:37.792Z,10.07
2019-01-11T16:20:43.892Z,7.83
2019-01-11T16:26:49.822Z,7.17
2019-01-11T16:32:55.518Z,8.70
2019-01-11T16:39:01.809Z,11.47
2019-01-11T16:45:11.279Z,13.03
2019-01-11T16:51:17.217Z,9.37
2019-01-11T16:57:23.051Z,10.83
2019-01-11T17:03:29.676Z,11.17
2019-01-11T17:09:35.601Z,10.53
2019-01-11T17:15:43.537Z,14.07
2019-01-11T17:21:49.733Z,11.70
2019-01-11T17:27:55.833Z,13.40
2019-01-11T17:34:01.808Z,18.67
2019-01-11T17:40:09.367Z,15.87
2019-01-11T17:46:15.394Z,15.20
2019-01-11T17:52:21.164Z,16.23
2019-01-11T17:58:27.060Z,15.30
2019-01-11T18:04:33.346Z,17.77
2019-01-11T18:10:39.597Z,16.83
2019-01-11T18:16:45.448Z,17.73
2019-01-11T18:22:51.292Z,16.73
2019-01-11T18:28:57.013Z,16.67
2019-01-11T18:35:02.841Z,19.83
2019-01-11T18:41:08.645Z,24.33
2019-01-11T18:47:14.418Z,21.03
2019-01-11T18:53:20.227Z,24.57
2019-01-11T18:59:26.250Z,25.23
2019-01-11T19:05:32.635Z,26.20
2019-01-11T19:11:38.452Z,28.80
2019-01-11T19:17:44.158Z,25.03
2019-01-11T19:23:49.976Z,20.33
2019-01-11T19:29:55.772Z,21.03
2019-01-11T19:36:01.524Z,13.83
2019-01-11T19:42:07.431Z,14.40
2019-01-11T19:48:13.262Z,11.60
2019-01-11T19:54:19.099Z,13.23
2019-01-11T20:00:29.858Z,13.43
2019-01-11T20:06:35.685Z,10.90
2019-01-11T20:12:41.596Z,13.07
2019-01-11T20:18:47.331Z,15.10
2019-01-11T20:24:55.454Z,13.00
2019-01-11T20:31:01.330Z,14.70
2019-01-11T20:37:14.732Z,16.97
2019-01-11T20:43:20.537Z,12.33
2019-01-11T20:49:26.454Z,11.73
2019-01-11T20:55:32.222Z,14.47
2019-01-11T21:01:37.997Z,10.73
2019-01-11T21:07:43.872Z,12.60
2019-01-11T21:13:49.697Z,9.40
2019-01-11T21:19:55.560Z,10.23
2019-01-11T21:26:01.457Z,12.57
2019-01-11T21:32:07.250Z,12.83
2019-01-11T21:38:13.518Z,13.23
2019-01-11T21:44:19.593Z,11.40
2019-01-11T21:50:29.145Z,10.23
2019-01-11T21:56:34.962Z,14.80
2019-01-11T22:02:40.790Z,14.87
2019-01-11T22:08:47.466Z,15.60
2019-01-11T22:14:53.320Z,11.33
2019-01-11T22:20:59.049Z,13.27
2019-01-11T22:27:06.293Z,13.27
2019-01-11T22:33:12.221Z,11.60
2019-01-11T22:39:18.029Z,9.83
2019-01-11T22:45:23.831Z,10.70
2019-01-11T22:51:30.131Z,12.13
2019-01-11T22:57:35.904Z,12.20
2019-01-11T23:03:49.318Z,12.37
2019-01-11T23:10:19.122Z,11.50
2019-01-11T23:16:51.439Z,17.03
2019-01-11T23:22:57.189Z,10.13
2019-01-11T23:29:03.056Z,10.63
2019-01-11T23:35:09.281Z,10.10
2019-01-11T23:41:15.507Z,12.30
2019-01-11T23:47:21.453Z,12.33
2019-01-11T23:53:27.207Z,13.90
2019-01-11T23:59:33.100Z,14.93
